Radar is unstable, so pay attention to the date and time in the image

Latest  Newer  Older  Last 2 hours animation  Current image  Latest image  Summary per 24h (testing)  Summary per 7d (testing) 
Cloud coverage sat images  Infrared sat images 
Real-time lightning map Aurora Forecast

All time is UTC (add 2 hours in wintertime, 3 hours in DST for Latvia local time)

2022/05/21 18:50 EVRA 211850Z 06006KT 4300 -DZ BR BKN005 OVC010 10/10 Q1003 BECMG 5000
2022/05/21 18:50 EVLA 211850Z AUTO VRB02KT 9999 -RA BKN005/// BKN023/// 09/08 Q1004
2022/05/21 18:50 EVVA 211850Z AUTO 05007KT 9999 -RA OVC009 10/10 Q1004
2022/05/21 18:50 EYKA 211850Z 27012KT 9000 -RA BKN004 OVC006 09/07 Q1004
2022/05/21 18:50 EYPA 211850Z VRB02KT 9999 OVC006 09/08 Q1004
2022/05/21 18:50 EYSA 211850Z 29009KT 9000 -RA BKN005 OVC013 10/09 Q1003 NOSIG
2022/05/21 18:50 EYVI 211850Z 01010KT 8000 -SHRA BKN005 BKN044CB 11/10 Q1002 NOSIG
2022/05/21 07:50 EEKA 210750Z 03012KT 350V070 CAVOK 09/05 Q1008
2022/05/21 18:50 EEKE 211850Z AUTO 36004KT 330V030 9999NDV -RA NSC 10/09 Q1006
2022/05/21 18:50 EEPU 211850Z AUTO 04011KT 9999 FEW082/// SCT100/// BKN230/// 12/02 Q1006
2022/05/21 18:50 EETN 211850Z 07012KT CAVOK 09/M01 Q1009 NOSIG
2022/05/21 18:50 EETU 211850Z AUTO 04005KT 9999 NCD 13/00 Q1005
   RIGA AIRPORT     EVRA               56 55N  023 58E   10   X     T          6 LV
   LIEPAJA INTL     EVLA        26406  56 31N  021 06E    4   X                8 LV
   VENTPILS         EVVA               57 21N  021 33E    6   X                8 LV
   KAUNAS           EYKA               54 54N  023 55E   77   X     T          6 LT
   PALANGA INTL     EYPA               55 55N  021 03E   10   X                6 LT
   SIAULIAI INTL    EYSA               55 54N  023 24E  135   X     T          6 LT
   VILNIUS INTL     EYVI        26730  54 38N  025 17E  197   X     T          6 LT
   KARDLA           EEKA        26116  58 59N  022 50E    4   X                8 EE
   KURESSAARE       EEKE               58 14N  022 31E    4   X                8 EE
   PARNU            EEPU               58 25N  024 28E   14   X                8 EE
   TALLINN          EETN        26038  59 24N  024 49E   40   X     T          8 EE
   TARTU            EETU               58 19N  026 41E   67   X                8 EE

rain/snow radar image from www.meteo.lv and METAR data from weather.noaa.gov